Holman, Texas
Current Conditions -  °F | °C
As of 3:15 PM on Thursday 20 Nov 2014 (Local Time) from K3T5 Reporting Station
Broken Clouds Broken Clouds  
Wind Chill: 71°   Ceiling: 3500
Heat Index: 71°   Visibility: 10mi
Dew Point: 65°   Wind: 5mph
Humidity: 84%   Direction: 160°SSE
Pressure: 30.03"   Gusts: NA
Location:  29.8569°N, 96.9311°W
Report Text: K3T5 202115Z AUTO 16004KT 10SM SCT029 BKN035 BKN055 21/19 A3003 RMK AO2 T02140186
Loading
Personal Weather Stations






























Interactive Weather Map New forecast layout! Learn more

10-Day Weather Forecast

Advertisements
Track Severe Weather on mobile